Time,TemperatureF,DewpointF,PressureIn,WindDirection,WindDirectionDegrees,WindSpeedMPH,WindSpeedGustMPH,Humidity,HourlyPrecipIn,Conditions,Clouds,dailyrainin,SoftwareType,DateUTC
2013-07-27 00:05:00,82.6,79.0,30.00,North,-999,-999.0,-999.0,89,-99.99,,,-99.99,WSDL version 420,2013-07-27 05:05:00,
2013-07-27 00:15:00,82.6,79.0,30.00,North,-999,-999.0,-999.0,89,-99.99,,,-99.99,WSDL version 420,2013-07-27 05:15:00,
2013-07-27 00:25:00,82.6,79.3,30.00,North,-999,-999.0,-999.0,90,-99.99,,,-99.99,WSDL version 420,2013-07-27 05:25:00,
2013-07-27 00:35:00,82.6,79.3,30.00,North,-999,-999.0,-999.0,90,-99.99,,,-99.99,WSDL version 420,2013-07-27 05:35:00,
2013-07-27 00:45:00,82.6,79.3,30.00,North,-999,-999.0,-999.0,90,-99.99,,,-99.99,WSDL version 420,2013-07-27 05:45:00,
2013-07-27 00:55:00,82.5,79.3,30.00,North,-999,-999.0,-999.0,90,-99.99,,,-99.99,WSDL version 420,2013-07-27 05:55:00,
2013-07-27 01:05:00,82.4,79.3,30.00,North,-999,-999.0,-999.0,90,-99.99,,,-99.99,WSDL version 420,2013-07-27 06:05:00,
2013-07-27 01:15:00,82.4,79.5,30.00,North,-999,-999.0,-999.0,91,-99.99,,,-99.99,WSDL version 420,2013-07-27 06:15:00,
2013-07-27 01:25:00,82.4,79.5,30.00,North,-999,-999.0,-999.0,91,-99.99,,,-99.99,WSDL version 420,2013-07-27 06:25:00,
2013-07-27 01:35:00,82.2,79.4,29.97,North,-999,-999.0,-999.0,91,-99.99,,,-99.99,WSDL version 420,2013-07-27 06:35:00,
2013-07-27 01:45:00,82.2,79.4,29.97,North,-999,-999.0,-999.0,91,-99.99,,,-99.99,WSDL version 420,2013-07-27 06:45:00,
2013-07-27 01:55:00,82.2,79.5,29.97,North,-999,-999.0,-999.0,92,-99.99,,,-99.99,WSDL version 420,2013-07-27 06:55:00,
2013-07-27 02:05:00,82.0,79.2,29.97,North,-999,-999.0,-999.0,91,-99.99,,,-99.99,WSDL version 420,2013-07-27 07:05:00,
2013-07-27 02:15:00,82.0,79.4,29.97,North,-999,-999.0,-999.0,92,-99.99,,,-99.99,WSDL version 420,2013-07-27 07:15:00,
2013-07-27 02:25:00,82.0,79.6,29.97,North,-999,-999.0,-999.0,92,-99.99,,,-99.99,WSDL version 420,2013-07-27 07:25:00,
2013-07-27 02:35:00,82.0,79.6,29.97,North,-999,-999.0,-999.0,92,-99.99,,,-99.99,WSDL version 420,2013-07-27 07:35:00,
2013-07-27 02:45:00,82.0,79.6,29.97,North,-999,-999.0,-999.0,92,-99.99,,,-99.99,WSDL version 420,2013-07-27 07:45:00,
2013-07-27 02:55:00,82.0,79.5,29.97,North,-999,-999.0,-999.0,92,-99.99,,,-99.99,WSDL version 420,2013-07-27 07:55:00,
2013-07-27 03:05:00,82.0,79.6,29.97,North,-999,-999.0,-999.0,92,-99.99,,,-99.99,WSDL version 420,2013-07-27 08:05:00,
2013-07-27 03:15:00,81.9,79.4,29.97,North,-999,-999.0,-999.0,92,-99.99,,,-99.99,WSDL version 420,2013-07-27 08:15:00,
2013-07-27 03:25:00,82.0,79.5,29.97,North,-999,-999.0,-999.0,92,-99.99,,,-99.99,WSDL version 420,2013-07-27 08:25:00,
2013-07-27 03:35:00,81.9,79.4,30.00,North,-999,-999.0,-999.0,92,-99.99,,,-99.99,WSDL version 420,2013-07-27 08:35:00,
2013-07-27 03:45:00,81.9,79.4,29.97,North,-999,-999.0,-999.0,92,-99.99,,,-99.99,WSDL version 420,2013-07-27 08:45:00,
2013-07-27 03:55:00,81.9,79.5,29.97,North,-999,-999.0,-999.0,92,-99.99,,,-99.99,WSDL version 420,2013-07-27 08:55:00,
2013-07-27 04:05:00,81.8,79.7,29.97,North,-999,-999.0,-999.0,93,-99.99,,,-99.99,WSDL version 420,2013-07-27 09:05:00,
2013-07-27 04:15:00,81.7,79.6,29.94,North,-999,-999.0,-999.0,93,-99.99,,,-99.99,WSDL version 420,2013-07-27 09:15:00,
2013-07-27 04:25:00,81.5,79.4,29.94,North,-999,-999.0,-999.0,93,-99.99,,,-99.99,WSDL version 420,2013-07-27 09:25:00,
2013-07-27 04:35:00,81.5,79.4,29.94,North,-999,-999.0,-999.0,93,-99.99,,,-99.99,WSDL version 420,2013-07-27 09:35:00,
2013-07-27 04:45:00,81.3,79.2,29.94,North,-999,-999.0,-999.0,93,-99.99,,,-99.99,WSDL version 420,2013-07-27 09:45:00,
2013-07-27 04:55:00,81.3,79.2,29.94,North,-999,-999.0,-999.0,93,-99.99,,,-99.99,WSDL version 420,2013-07-27 09:55:00,
2013-07-27 05:05:00,81.2,79.1,29.94,North,-999,-999.0,-999.0,93,-99.99,,,-99.99,WSDL version 420,2013-07-27 10:05:00,
2013-07-27 05:15:00,81.1,78.9,29.94,North,-999,-999.0,-999.0,93,-99.99,,,-99.99,WSDL version 420,2013-07-27 10:15:00,
2013-07-27 05:25:00,80.9,78.8,29.94,North,-999,-999.0,-999.0,93,-99.99,,,-99.99,WSDL version 420,2013-07-27 10:25:00,
2013-07-27 05:35:00,80.8,78.9,29.94,North,-999,-999.0,-999.0,94,-99.99,,,-99.99,WSDL version 420,2013-07-27 10:35:00,
2013-07-27 05:45:00,80.6,78.9,29.94,North,-999,-999.0,-999.0,94,-99.99,,,-99.99,WSDL version 420,2013-07-27 10:45:00,
2013-07-27 05:55:00,80.4,78.7,29.94,North,-999,-999.0,-999.0,94,-99.99,,,-99.99,WSDL version 420,2013-07-27 10:55:00,
2013-07-27 06:05:00,80.4,78.7,29.94,North,-999,-999.0,-999.0,94,-99.99,,,-99.99,WSDL version 420,2013-07-27 11:05:00,
2013-07-27 06:15:00,80.2,78.5,29.94,North,-999,-999.0,-999.0,94,-99.99,,,-99.99,WSDL version 420,2013-07-27 11:15:00,
2013-07-27 06:25:00,80.2,78.5,29.94,North,-999,-999.0,-999.0,94,-99.99,,,-99.99,WSDL version 420,2013-07-27 11:25:00,
2013-07-27 06:35:00,80.2,78.5,29.94,North,-999,-999.0,-999.0,94,-99.99,,,-99.99,WSDL version 420,2013-07-27 11:35:00,
2013-07-27 06:45:00,80.1,78.3,29.94,North,-999,-999.0,-999.0,94,-99.99,,,-99.99,WSDL version 420,2013-07-27 11:45:00,
2013-07-27 06:55:00,80.1,78.3,29.94,South,180,3.6,5.4,94,-99.99,,,-99.99,WSDL version 420,2013-07-27 11:55:00,
2013-07-27 07:05:00,80.1,78.7,29.97,South,180,3.6,5.4,96,-99.99,,,-99.99,WSDL version 420,2013-07-27 12:05:00,
2013-07-27 07:15:00,80.1,78.6,29.97,North,-999,-999.0,-999.0,94,0.00,,,0.00,WSDL version 420,2013-07-27 12:15:00,
2013-07-27 07:25:00,80.4,78.6,29.97,North,-999,-999.0,-999.0,94,-99.99,,,-99.99,WSDL version 420,2013-07-27 12:25:00,
2013-07-27 07:35:00,80.6,78.9,29.97,North,-999,-999.0,-999.0,94,-99.99,,,-99.99,WSDL version 420,2013-07-27 12:35:00,
2013-07-27 07:45:00,80.8,78.7,29.97,North,-999,-999.0,-999.0,93,0.00,,,0.00,WSDL version 420,2013-07-27 12:45:00,
2013-07-27 07:55:00,81.4,79.3,29.94,North,-999,-999.0,-999.0,93,-99.99,,,-99.99,WSDL version 420,2013-07-27 12:55:00,
2013-07-27 08:05:00,82.1,79.8,29.94,South,169,6.9,6.9,92,-99.99,,,-99.99,WSDL version 420,2013-07-27 13:05:00,
2013-07-27 08:15:00,82.5,79.7,29.97,SSE,151,8.2,12.1,91,-99.99,,,-99.99,WSDL version 420,2013-07-27 13:15:00,
2013-07-27 08:25:00,82.9,79.8,29.97,SSE,160,8.0,12.3,90,-99.99,,,-99.99,WSDL version 420,2013-07-27 13:25:00,
2013-07-27 08:35:00,83.2,79.9,29.97,SSE,148,9.0,15.4,90,-99.99,,,-99.99,WSDL version 420,2013-07-27 13:35:00,
2013-07-27 08:45:00,83.7,80.3,29.97,SE,135,8.7,13.2,89,-99.99,,,-99.99,WSDL version 420,2013-07-27 13:45:00,
2013-07-27 08:55:00,84.6,80.5,29.97,SSE,165,7.9,12.8,87,0.00,,,0.00,WSDL version 420,2013-07-27 13:55:00,
2013-07-27 09:05:00,85.6,80.3,29.97,SE,145,10.5,17.2,83,-99.99,,,-99.99,WSDL version 420,2013-07-27 14:05:00,
2013-07-27 09:15:00,86.5,79.3,29.97,SSE,154,8.9,17.7,78,-99.99,,,-99.99,WSDL version 420,2013-07-27 14:15:00,
2013-07-27 09:25:00,87.0,78.8,29.97,SSE,152,10.7,19.7,76,-99.99,,,-99.99,WSDL version 420,2013-07-27 14:25:00,
2013-07-27 09:35:00,87.1,77.7,29.97,SE,146,12.8,18.1,73,-99.99,,,-99.99,WSDL version 420,2013-07-27 14:35:00,
2013-07-27 09:45:00,86.9,77.2,30.00,SSE,154,10.0,17.0,74,-99.99,,,-99.99,WSDL version 420,2013-07-27 14:45:00,
2013-07-27 09:55:00,86.7,76.2,30.00,SE,129,11.2,19.2,71,-99.99,,,-99.99,WSDL version 420,2013-07-27 14:55:00,
2013-07-27 10:05:00,87.3,77.2,29.97,ESE,116,11.3,17.7,72,-99.99,,,-99.99,WSDL version 420,2013-07-27 15:05:00,
2013-07-27 10:15:00,87.7,76.3,29.97,SSE,158,12.4,17.0,69,-99.99,,,-99.99,WSDL version 420,2013-07-27 15:15:00,
2013-07-27 10:25:00,88.5,76.4,29.97,SE,135,11.0,19.7,68,-99.99,,,-99.99,WSDL version 420,2013-07-27 15:25:00,
2013-07-27 10:35:00,88.7,75.5,29.97,SSE,163,13.1,19.2,65,-99.99,,,-99.99,WSDL version 420,2013-07-27 15:35:00,
2013-07-27 10:45:00,89.3,75.2,30.00,SE,145,10.9,17.2,63,-99.99,,,-99.99,WSDL version 420,2013-07-27 15:45:00,
2013-07-27 10:55:00,89.7,74.1,30.00,SSE,150,12.7,19.7,60,-99.99,,,-99.99,WSDL version 420,2013-07-27 15:55:00,
2013-07-27 11:05:00,90.3,74.8,29.97,South,170,11.6,17.9,60,-99.99,,,-99.99,WSDL version 420,2013-07-27 16:05:00,
2013-07-27 11:15:00,90.4,74.7,30.00,SE,128,10.4,17.9,60,-99.99,,,-99.99,WSDL version 420,2013-07-27 16:15:00,
2013-07-27 11:25:00,90.6,75.0,30.00,SE,129,11.5,16.3,61,-99.99,,,-99.99,WSDL version 420,2013-07-27 16:25:00,
2013-07-27 11:35:00,90.6,75.1,29.97,SE,145,11.0,17.7,61,0.00,,,0.00,WSDL version 420,2013-07-27 16:35:00,
2013-07-27 11:45:00,90.6,75.1,29.97,SE,135,9.6,18.6,60,-99.99,,,-99.99,WSDL version 420,2013-07-27 16:45:00,
2013-07-27 11:55:00,90.2,74.6,29.97,SE,141,11.0,17.7,60,-99.99,,,-99.99,WSDL version 420,2013-07-27 16:55:00,
2013-07-27 12:05:00,91.2,75.0,29.94,ESE,116,12.0,16.1,59,-99.99,,,-99.99,WSDL version 420,2013-07-27 17:05:00,
2013-07-27 12:15:00,91.8,74.9,29.94,SE,143,13.4,19.9,58,-99.99,,,-99.99,WSDL version 420,2013-07-27 17:15:00,
2013-07-27 12:25:00,-999.0,-99.9,29.97,SE,135,12.2,19.5,-999,-99.99,,,-99.99,WSDL version 420,2013-07-27 17:25:00,
2013-07-27 12:35:00,92.0,74.8,29.97,SE,143,10.6,17.7,58,-99.99,,,-99.99,WSDL version 420,2013-07-27 17:35:00,
2013-07-27 12:45:00,-999.0,-99.9,29.97,SE,135,13.0,22.1,-999,-99.99,,,-99.99,WSDL version 420,2013-07-27 17:45:00,
2013-07-27 12:55:00,91.0,74.9,29.97,SE,135,16.6,21.3,59,-99.99,,,-99.99,WSDL version 420,2013-07-27 17:55:00,
2013-07-27 13:05:00,91.6,75.1,29.97,SSE,148,12.6,19.5,58,-99.99,,,-99.99,WSDL version 420,2013-07-27 18:05:00,
2013-07-27 13:15:00,92.4,74.8,29.97,SSE,161,12.0,15.9,57,-99.99,,,-99.99,WSDL version 420,2013-07-27 18:15:00,
2013-07-27 13:25:00,92.9,75.4,29.97,SE,141,11.7,20.8,56,-99.99,,,-99.99,WSDL version 420,2013-07-27 18:25:00,
2013-07-27 13:35:00,93.1,75.0,29.94,SSE,148,11.0,18.8,56,-99.99,,,-99.99,WSDL version 420,2013-07-27 18:35:00,
2013-07-27 13:45:00,91.7,75.0,29.94,SE,129,10.9,19.0,62,-99.99,,,-99.99,WSDL version 420,2013-07-27 18:45:00,
2013-07-27 13:55:00,92.4,76.3,29.94,SE,135,13.3,16.3,58,-99.99,,,-99.99,WSDL version 420,2013-07-27 18:55:00,
2013-07-27 14:05:00,92.7,76.2,29.94,SE,135,13.8,16.8,60,-99.99,,,-99.99,WSDL version 420,2013-07-27 19:05:00,
2013-07-27 14:15:00,91.4,76.1,29.94,SSE,155,13.5,21.3,62,-99.99,,,-99.99,WSDL version 420,2013-07-27 19:15:00,
2013-07-27 14:25:00,91.3,75.4,29.94,SE,145,11.5,22.4,59,-99.99,,,-99.99,WSDL version 420,2013-07-27 19:25:00,
2013-07-27 14:35:00,92.2,75.3,29.94,SE,146,14.7,17.7,58,-99.99,,,-99.99,WSDL version 420,2013-07-27 19:35:00,
2013-07-27 14:45:00,92.5,76.6,29.94,SE,144,12.4,17.2,61,-99.99,,,-99.99,WSDL version 420,2013-07-27 19:45:00,
2013-07-27 14:55:00,92.9,77.4,29.94,SE,135,11.3,22.1,62,-99.99,,,-99.99,WSDL version 420,2013-07-27 19:55:00,
2013-07-27 15:05:00,91.8,77.1,29.94,SE,128,16.9,23.0,62,-99.99,,,-99.99,WSDL version 420,2013-07-27 20:05:00,
2013-07-27 15:15:00,92.0,77.6,29.94,SE,135,15.4,20.4,63,-99.99,,,-99.99,WSDL version 420,2013-07-27 20:15:00,
2013-07-27 15:25:00,91.9,77.5,29.94,SE,128,15.0,23.9,63,-99.99,,,-99.99,WSDL version 420,2013-07-27 20:25:00,
2013-07-27 15:35:00,91.7,77.8,29.94,ESE,116,14.4,20.1,64,-99.99,,,-99.99,WSDL version 420,2013-07-27 20:35:00,
2013-07-27 15:45:00,91.4,77.6,29.94,SE,129,14.9,22.4,64,-99.99,,,-99.99,WSDL version 420,2013-07-27 20:45:00,
2013-07-27 15:55:00,91.0,77.6,29.91,SE,135,16.4,25.5,66,-99.99,,,-99.99,WSDL version 420,2013-07-27 20:55:00,
2013-07-27 16:05:00,90.7,77.6,29.91,ESE,105,13.5,23.7,66,-99.99,,,-99.99,WSDL version 420,2013-07-27 21:05:00,
2013-07-27 16:15:00,91.0,77.7,29.91,SE,135,14.6,20.6,65,-99.99,,,-99.99,WSDL version 420,2013-07-27 21:15:00,
2013-07-27 16:25:00,91.0,77.5,29.91,SSE,148,15.7,19.9,64,-99.99,,,-99.99,WSDL version 420,2013-07-27 21:25:00,
2013-07-27 16:35:00,91.2,78.4,29.91,ESE,113,13.4,20.1,67,-99.99,,,-99.99,WSDL version 420,2013-07-27 21:35:00,
2013-07-27 16:45:00,90.7,78.1,29.91,ESE,118,15.9,19.7,67,-99.99,,,-99.99,WSDL version 420,2013-07-27 21:45:00,
2013-07-27 16:55:00,90.8,78.4,29.91,ESE,107,11.8,22.4,67,-99.99,,,-99.99,WSDL version 420,2013-07-27 21:55:00,
2013-07-27 17:05:00,90.8,78.4,29.91,ESE,122,12.6,19.2,67,-99.99,,,-99.99,WSDL version 420,2013-07-27 22:05:00,
2013-07-27 17:15:00,90.5,78.0,29.91,SE,135,13.2,19.9,67,-99.99,,,-99.99,WSDL version 420,2013-07-27 22:15:00,
2013-07-27 17:25:00,90.1,78.3,29.91,ESE,116,11.4,19.7,68,-99.99,,,-99.99,WSDL version 420,2013-07-27 22:25:00,
2013-07-27 17:35:00,89.8,77.8,29.91,ESE,113,13.9,20.6,68,-99.99,,,-99.99,WSDL version 420,2013-07-27 22:35:00,
2013-07-27 17:45:00,89.5,78.4,29.91,SE,141,13.7,17.7,70,-99.99,,,-99.99,WSDL version 420,2013-07-27 22:45:00,
2013-07-27 17:55:00,89.2,78.5,29.91,ESE,105,14.3,21.0,71,-99.99,,,-99.99,WSDL version 420,2013-07-27 22:55:00,
2013-07-27 18:05:00,89.2,78.6,29.91,ESE,122,11.7,17.2,71,-99.99,,,-99.99,WSDL version 420,2013-07-27 23:05:00,
2013-07-27 18:15:00,88.9,78.6,29.91,SE,129,13.3,20.8,72,-99.99,,,-99.99,WSDL version 420,2013-07-27 23:15:00,
2013-07-27 18:25:00,88.6,78.6,29.91,SE,129,13.2,21.5,73,-99.99,,,-99.99,WSDL version 420,2013-07-27 23:25:00,
2013-07-27 18:35:00,88.2,78.7,29.91,ESE,116,12.8,17.7,74,-99.99,,,-99.99,WSDL version 420,2013-07-27 23:35:00,
2013-07-27 18:45:00,87.8,78.7,29.91,ESE,116,12.3,17.7,75,-99.99,,,-99.99,WSDL version 420,2013-07-27 23:45:00,
2013-07-27 18:55:00,87.7,79.3,29.88,SE,128,10.1,19.9,77,-99.99,,,-99.99,WSDL version 420,2013-07-27 23:55:00,
2013-07-27 19:05:00,87.4,79.3,29.88,SE,143,11.5,16.3,77,-99.99,,,-99.99,WSDL version 420,2013-07-28 00:05:00,
2013-07-27 19:15:00,87.0,79.7,29.88,ESE,120,11.9,14.8,79,-99.99,,,-99.99,WSDL version 420,2013-07-28 00:15:00,
2013-07-27 19:25:00,86.6,80.0,29.88,ESE,107,10.1,16.8,81,-99.99,,,-99.99,WSDL version 420,2013-07-28 00:25:00,
2013-07-27 19:35:00,85.8,79.8,29.85,ESE,110,12.1,17.2,83,-99.99,,,-99.99,WSDL version 420,2013-07-28 00:35:00,
2013-07-27 19:45:00,85.4,80.0,29.85,SE,135,11.3,14.5,84,-99.99,,,-99.99,WSDL version 420,2013-07-28 00:45:00,
2013-07-27 19:55:00,84.9,80.1,29.91,ESE,120,9.3,16.1,86,-99.99,,,-99.99,WSDL version 420,2013-07-28 00:55:00,
2013-07-27 20:05:00,84.7,80.2,29.91,SE,135,8.1,15.4,87,-99.99,,,-99.99,WSDL version 420,2013-07-28 01:05:00,
2013-07-27 20:15:00,84.3,80.3,29.91,East,98,6.9,13.9,88,-99.99,,,-99.99,WSDL version 420,2013-07-28 01:15:00,
2013-07-27 20:25:00,83.8,80.3,29.91,SE,125,7.0,12.8,90,-99.99,,,-99.99,WSDL version 420,2013-07-28 01:25:00,
2013-07-27 20:35:00,83.5,80.4,29.91,SE,135,8.4,11.2,91,-99.99,,,-99.99,WSDL version 420,2013-07-28 01:35:00,
2013-07-27 20:45:00,83.4,80.6,29.88,ESE,116,8.2,13.4,91,-99.99,,,-99.99,WSDL version 420,2013-07-28 01:45:00,
2013-07-27 20:55:00,83.2,80.5,29.88,ESE,110,8.6,13.2,92,-99.99,,,-99.99,WSDL version 420,2013-07-28 01:55:00,
2013-07-27 21:05:00,83.1,80.6,29.91,South,169,7.2,11.0,92,-99.99,,,-99.99,WSDL version 420,2013-07-28 02:05:00,
2013-07-27 21:15:00,82.9,80.4,29.91,ESE,120,9.1,11.0,92,-99.99,,,-99.99,WSDL version 420,2013-07-28 02:15:00,
2013-07-27 21:25:00,82.9,80.4,29.91,SE,125,9.1,12.8,92,-99.99,,,-99.99,WSDL version 420,2013-07-28 02:25:00,
2013-07-27 21:35:00,82.9,80.2,29.88,SE,129,9.7,13.2,91,-99.99,,,-99.99,WSDL version 420,2013-07-28 02:35:00,
2013-07-27 21:45:00,82.9,80.1,29.88,SE,126,10.1,15.2,91,-99.99,,,-99.99,WSDL version 420,2013-07-28 02:45:00,
2013-07-27 21:55:00,82.9,80.1,29.88,SE,126,7.3,12.8,91,-99.99,,,-99.99,WSDL version 420,2013-07-28 02:55:00,
2013-07-27 22:05:00,82.9,80.1,29.91,ESE,113,8.9,11.9,91,-99.99,,,-99.99,WSDL version 420,2013-07-28 03:05:00,
2013-07-27 22:15:00,82.9,80.1,29.91,SE,135,8.8,12.5,91,-99.99,,,-99.99,WSDL version 420,2013-07-28 03:15:00,
2013-07-27 22:25:00,82.9,80.1,29.91,ESE,109,7.3,12.5,91,-99.99,,,-99.99,WSDL version 420,2013-07-28 03:25:00,
2013-07-27 22:35:00,82.9,80.1,29.91,ESE,120,7.2,12.1,91,-99.99,,,-99.99,WSDL version 420,2013-07-28 03:35:00,
2013-07-27 22:45:00,82.8,80.0,29.91,SE,135,9.6,15.9,91,-99.99,,,-99.99,WSDL version 420,2013-07-28 03:45:00,
2013-07-27 22:55:00,82.8,79.9,29.91,SE,135,10.2,13.4,91,-99.99,,,-99.99,WSDL version 420,2013-07-28 03:55:00,
2013-07-27 23:05:00,82.6,79.7,29.91,ESE,120,8.6,15.2,91,-99.99,,,-99.99,WSDL version 420,2013-07-28 04:05:00,
2013-07-27 23:15:00,-999.0,-99.9,29.94,SE,128,8.4,12.3,-999,-99.99,,,-99.99,WSDL version 420,2013-07-28 04:15:00,
2013-07-27 23:25:00,82.4,79.9,29.94,East,96,9.5,12.5,92,-99.99,,,-99.99,WSDL version 420,2013-07-28 04:25:00,
2013-07-27 23:35:00,82.4,79.9,29.94,SE,146,9.7,13.4,92,-99.99,,,-99.99,WSDL version 420,2013-07-28 04:35:00,
2013-07-27 23:45:00,82.4,79.9,29.94,South,180,9.2,11.9,92,-99.99,,,-99.99,WSDL version 420,2013-07-28 04:45:00,
2013-07-27 23:55:00,82.2,80.1,29.91,SE,135,10.2,13.2,93,-99.99,,,-99.99,WSDL version 420,2013-07-28 04:55:00,